Time;durP1;ratioP1;P1;durP2;ratioP2;P2;SDS_P1;SDS_P2;PMS_P1;PMS_P2;Temp;Humidity;BMP_temperature;BMP_pressure;BME280_temperature;BME280_humidity;BME280_pressure;Samples;Min_cycle;Max_cycle;Signal;HPM_P1;HPM_P2
2021/12/30 00:01:01;;;;;;;20.00;15.27;;;;;;;5.03;100.00;100414.75;5024530;28;20268;-54
2021/12/30 00:03:29;;;;;;;23.73;15.40;;;;;;;5.08;100.00;100420.00;5024216;28;20260;-54
2021/12/30 00:05:55;;;;;;;20.07;15.03;;;;;;;5.05;100.00;100419.94;5016798;28;20267;-54
2021/12/30 00:08:22;;;;;;;21.43;14.20;;;;;;;5.07;100.00;100413.06;5024548;28;20302;-55
2021/12/30 00:10:49;;;;;;;20.63;14.60;;;;;;;5.18;100.00;100427.13;5025269;28;20229;-55
2021/12/30 00:13:16;;;;;;;21.87;14.70;;;;;;;5.15;100.00;100420.97;5023806;28;20248;-54
2021/12/30 00:15:42;;;;;;;21.53;14.97;;;;;;;5.20;100.00;100414.16;5025527;28;20495;-55
2021/12/30 00:18:10;;;;;;;19.40;13.93;;;;;;;5.13;100.00;100413.16;5026424;28;20256;-54
2021/12/30 00:20:38;;;;;;;20.43;14.47;;;;;;;5.23;100.00;100420.28;5027276;28;20287;-54
2021/12/30 00:23:07;;;;;;;18.70;13.87;;;;;;;5.26;100.00;100420.31;5027162;28;20264;-54
2021/12/30 00:25:39;;;;;;;20.67;15.10;;;;;;;5.18;100.00;100423.63;5029148;28;20286;-53
2021/12/30 00:28:05;;;;;;;19.17;13.37;;;;;;;5.19;100.00;100418.44;5030486;28;20243;-53
2021/12/30 00:30:32;;;;;;;20.17;14.87;;;;;;;5.27;100.00;100416.00;5034670;28;20657;-54
2021/12/30 00:32:58;;;;;;;17.30;14.27;;;;;;;5.39;100.00;100404.88;5032979;28;20271;-54
2021/12/30 00:35:24;;;;;;;19.70;13.80;;;;;;;5.40;100.00;100411.81;5030866;28;20240;-54
2021/12/30 00:37:52;;;;;;;21.33;14.47;;;;;;;5.36;100.00;100410.03;5033632;28;20224;-55
2021/12/30 00:40:19;;;;;;;18.83;14.73;;;;;;;5.29;100.00;100402.97;5032372;28;20236;-52
2021/12/30 00:42:45;;;;;;;19.80;14.23;;;;;;;5.31;100.00;100403.91;5031521;28;20251;-53
2021/12/30 00:45:12;;;;;;;21.00;15.83;;;;;;;5.38;100.00;100418.75;5031972;28;20252;-54
2021/12/30 00:47:38;;;;;;;22.00;15.47;;;;;;;5.35;100.00;100403.09;5033293;28;20242;-55
2021/12/30 00:50:05;;;;;;;16.87;13.57;;;;;;;5.32;100.00;100413.44;5031643;28;20260;-56
2021/12/30 00:52:31;;;;;;;17.20;11.97;;;;;;;5.35;100.00;100421.31;5032634;28;20256;-56
2021/12/30 00:54:59;;;;;;;19.67;14.60;;;;;;;5.31;100.00;100422.13;5031212;28;20241;-54
2021/12/30 00:57:25;;;;;;;19.03;15.10;;;;;;;5.42;100.00;100417.94;5028607;28;20244;-53
2021/12/30 00:59:52;;;;;;;21.07;14.67;;;;;;;5.37;100.00;100425.69;5027741;28;20322;-54
2021/12/30 01:02:18;;;;;;;18.13;14.13;;;;;;;5.35;100.00;100429.13;5028290;28;20311;-55
2021/12/30 01:04:44;;;;;;;17.50;14.33;;;;;;;5.36;100.00;100430.84;5027520;28;20283;-52
2021/12/30 01:07:11;;;;;;;15.83;12.90;;;;;;;5.35;100.00;100437.78;5027376;28;20270;-56
2021/12/30 01:09:37;;;;;;;20.77;13.70;;;;;;;5.28;100.00;100432.47;5027852;28;20663;-55
2021/12/30 01:12:06;;;;;;;18.10;13.50;;;;;;;5.31;100.00;100432.53;5028417;28;20272;-55
2021/12/30 01:14:35;;;;;;;16.13;12.57;;;;;;;5.34;100.00;100432.56;5027383;28;20705;-55
2021/12/30 01:17:15;;;;;;;17.77;13.57;;;;;;;5.30;100.00;100443.78;5027806;28;20245;-55
2021/12/30 01:19:44;;;;;;;17.97;14.33;;;;;;;5.29;100.00;100439.41;5026939;28;20229;-53
2021/12/30 01:22:11;;;;;;;20.43;13.70;;;;;;;5.30;100.00;100435.97;5029450;28;20274;-56
2021/12/30 01:24:38;;;;;;;17.30;12.97;;;;;;;5.41;100.00;100450.03;5027819;28;20658;-56
2021/12/30 01:27:06;;;;;;;16.27;12.70;;;;;;;5.52;100.00;100447.59;5026753;28;20267;-54
2021/12/30 01:29:32;;;;;;;16.97;12.10;;;;;;;5.44;100.00;100442.25;5028437;28;20275;-57
2021/12/30 01:31:59;;;;;;;18.77;13.43;;;;;;;5.36;100.00;100436.06;5027675;28;20272;-55
2021/12/30 01:34:27;;;;;;;17.57;12.53;;;;;;;5.34;100.00;100435.19;5026641;28;20240;-54
2021/12/30 01:36:53;;;;;;;15.77;12.93;;;;;;;5.36;100.00;100430.84;5017968;28;20243;-55
2021/12/30 01:39:21;;;;;;;14.80;11.73;;;;;;;5.33;100.00;100428.19;5027423;28;20236;-55
2021/12/30 01:41:48;;;;;;;19.67;13.83;;;;;;;5.33;100.00;100425.59;5029925;28;20232;-56
2021/12/30 01:44:16;;;;;;;19.13;12.47;;;;;;;5.32;100.00;100429.06;5034590;28;20237;-52
2021/12/30 01:46:45;;;;;;;14.23;12.00;;;;;;;5.30;100.00;100438.56;5032304;28;20271;-55
2021/12/30 01:49:13;;;;;;;14.23;12.03;;;;;;;5.30;100.00;100442.06;5026928;28;20323;-56
2021/12/30 01:51:40;;;;;;;18.73;12.93;;;;;;;5.29;100.00;100445.50;5027546;28;20271;-52
2021/12/30 01:54:07;;;;;;;15.97;13.33;;;;;;;5.30;100.00;100442.06;5027096;28;20262;-53
2021/12/30 01:56:34;;;;;;;12.73;10.57;;;;;;;5.33;100.00;100441.22;5027316;28;20233;-54
2021/12/30 01:59:02;;;;;;;15.40;12.53;;;;;;;5.30;100.00;100431.66;5026397;28;20689;-52
2021/12/30 02:01:31;;;;;;;15.00;11.93;;;;;;;5.26;100.00;100422.94;5026882;28;20622;-54
2021/12/30 02:03:57;;;;;;;14.70;13.10;;;;;;;5.29;100.00;100426.41;5026780;28;20320;-54
2021/12/30 02:06:24;;;;;;;13.77;12.33;;;;;;;5.33;100.00;100433.41;5026924;28;20718;-54
2021/12/30 02:08:51;;;;;;;13.73;11.27;;;;;;;5.33;100.00;100431.66;5028557;28;20290;-53
2021/12/30 02:11:18;;;;;;;15.97;12.50;;;;;;;5.35;100.00;100439.53;5026505;28;20246;-54
2021/12/30 02:13:46;;;;;;;16.00;12.80;;;;;;;5.31;100.00;100432.53;5026702;28;20259;-56
2021/12/30 02:16:15;;;;;;;17.70;13.00;;;;;;;5.41;100.00;100444.84;5025824;28;20244;-55
2021/12/30 02:18:43;;;;;;;16.70;13.03;;;;;;;5.42;100.00;100441.38;5025971;28;20252;-53
2021/12/30 02:21:11;;;;;;;15.10;12.90;;;;;;;5.40;100.00;100443.06;5027191;28;20815;-53
2021/12/30 02:23:38;;;;;;;18.17;14.60;;;;;;;5.43;100.00;100427.50;5026316;28;20252;-55
2021/12/30 02:26:06;;;;;;;17.73;12.93;;;;;;;5.47;100.00;100429.28;5026642;28;20314;-54
2021/12/30 02:28:35;;;;;;;20.33;14.47;;;;;;;5.40;100.00;100432.66;5025820;28;20278;-55
2021/12/30 02:31:03;;;;;;;19.63;13.20;;;;;;;5.44;100.00;100429.22;5033014;28;20668;-53
2021/12/30 02:33:29;;;;;;;19.73;14.33;;;;;;;5.44;100.00;100424.03;5025926;28;20233;-53
2021/12/30 02:35:56;;;;;;;15.77;13.47;;;;;;;5.40;100.00;100437.84;5026274;28;20272;-55
2021/12/30 02:38:25;;;;;;;16.97;14.30;;;;;;;5.44;100.00;100444.84;5026258;28;20236;-55
2021/12/30 02:40:53;;;;;;;18.63;13.73;;;;;;;5.40;100.00;100432.66;5026460;28;20306;-55
2021/12/30 02:43:20;;;;;;;20.97;14.10;;;;;;;5.52;100.00;100435.44;5025493;28;20314;-54
2021/12/30 02:45:47;;;;;;;18.23;14.70;;;;;;;5.47;100.00;100440.56;5026230;28;20241;-54
2021/12/30 02:48:14;;;;;;;17.93;14.43;;;;;;;5.49;100.00;100443.22;5028190;28;20240;-54
2021/12/30 02:50:41;;;;;;;18.30;14.37;;;;;;;5.63;100.00;100441.69;5026642;28;20290;-53
2021/12/30 02:53:07;;;;;;;21.10;14.20;;;;;;;5.50;100.00;100435.41;5026659;28;20371;-55
2021/12/30 02:55:35;;;;;;;16.83;13.97;;;;;;;5.56;100.00;100446.78;5026576;28;20266;-56
2021/12/30 02:58:01;;;;;;;18.67;12.93;;;;;;;5.64;100.00;100451.22;5025073;28;20236;-54
2021/12/30 03:00:28;;;;;;;18.90;13.90;;;;;;;5.62;100.00;100455.56;5026119;28;20248;-56
2021/12/30 03:02:56;;;;;;;17.30;13.93;;;;;;;5.65;100.00;100457.31;5026275;28;20252;-56
2021/12/30 03:05:24;;;;;;;17.17;13.27;;;;;;;5.61;100.00;100459.00;5024751;28;20239;-54
2021/12/30 03:07:50;;;;;;;18.27;13.17;;;;;;;5.61;100.00;100466.81;5025518;28;20306;-55
2021/12/30 03:10:18;;;;;;;14.87;12.03;;;;;;;5.71;100.00;100466.09;5025332;28;20255;-54
2021/12/30 03:12:51;;;;;;;15.70;12.03;;;;;;;5.72;100.00;100461.75;5023316;28;20260;-54
2021/12/30 03:15:18;;;;;;;17.40;12.93;;;;;;;5.80;100.00;100461.88;5020365;28;20251;-55
2021/12/30 03:17:44;;;;;;;15.37;12.93;;;;;;;5.73;100.00;100461.78;5025813;28;20241;-56
2021/12/30 03:20:11;;;;;;;15.27;12.63;;;;;;;5.84;100.00;100467.16;5024554;28;20584;-56
2021/12/30 03:22:38;;;;;;;15.47;11.27;;;;;;;5.88;100.00;100478.50;5026429;28;20225;-56
2021/12/30 03:25:06;;;;;;;16.37;11.40;;;;;;;5.88;100.00;100479.38;5024988;28;20263;-56
2021/12/30 03:27:32;;;;;;;13.00;11.60;;;;;;;5.88;100.00;100481.09;5024782;28;20658;-56
2021/12/30 03:30:00;;;;;;;15.13;11.90;;;;;;;5.89;100.00;100481.09;5025950;28;20299;-55
2021/12/30 03:32:26;;;;;;;12.33;10.23;;;;;;;5.95;100.00;100486.44;5025490;28;20335;-55
2021/12/30 03:34:53;;;;;;;14.10;9.97;;;;;;;6.04;100.00;100483.09;5018401;28;20791;-55
2021/12/30 03:37:19;;;;;;;14.63;10.27;;;;;;;6.14;100.00;100481.47;5024744;28;20298;-53
2021/12/30 03:39:47;;;;;;;12.60;10.03;;;;;;;6.15;100.00;100481.50;5025488;28;20225;-56
2021/12/30 03:42:14;;;;;;;13.43;9.63;;;;;;;6.18;100.00;100480.69;5024829;28;20310;-55
2021/12/30 03:44:40;;;;;;;10.60;9.47;;;;;;;6.21;100.00;100478.97;5024663;28;20237;-53
2021/12/30 03:47:12;;;;;;;10.63;9.43;;;;;;;6.22;100.00;100474.63;5024745;28;20394;-55
2021/12/30 03:49:43;;;;;;;10.17;8.80;;;;;;;6.23;100.00;100484.19;5024793;28;20309;-54
2021/12/30 03:52:10;;;;;;;11.43;8.97;;;;;;;6.25;100.00;100499.84;5025133;28;20783;-55
2021/12/30 03:54:36;;;;;;;10.90;8.27;;;;;;;6.29;100.00;100512.09;5025755;28;20261;-53
2021/12/30 03:57:03;;;;;;;13.57;9.60;;;;;;;6.37;100.00;100505.22;5025361;28;20260;-59
2021/12/30 03:59:29;;;;;;;9.83;8.27;;;;;;;6.33;100.00;100503.44;5023159;28;20240;-53
2021/12/30 04:01:56;;;;;;;9.07;8.07;;;;;;;6.44;100.00;100514.88;5024860;28;20772;-53
2021/12/30 04:04:23;;;;;;;10.43;8.90;;;;;;;6.43;100.00;100528.78;5023863;28;20317;-55
2021/12/30 04:06:50;;;;;;;15.30;9.20;;;;;;;6.46;100.00;100531.44;5024394;28;20312;-57
2021/12/30 04:09:16;;;;;;;12.57;10.13;;;;;;;6.53;100.00;100533.25;5024811;28;20271;-56
2021/12/30 04:11:42;;;;;;;11.87;9.43;;;;;;;6.63;100.00;100544.66;5024570;28;20286;-56
2021/12/30 04:14:09;;;;;;;13.43;10.47;;;;;;;6.66;100.00;100561.22;5024423;28;20229;-55
2021/12/30 04:16:35;;;;;;;15.20;11.07;;;;;;;6.65;100.00;100563.81;5025266;28;20232;-54
2021/12/30 04:19:01;;;;;;;15.33;9.90;;;;;;;6.67;100.00;100572.56;5024128;28;20600;-52
2021/12/30 04:21:29;;;;;;;16.40;10.40;;;;;;;6.68;100.00;100580.38;5025960;28;20220;-53
2021/12/30 04:23:56;;;;;;;14.80;10.60;;;;;;;6.61;100.00;100583.78;5025014;28;21362;-55
2021/12/30 04:26:22;;;;;;;18.43;11.43;;;;;;;6.66;100.00;100587.31;5024464;28;20657;-56
2021/12/30 04:28:49;;;;;;;15.47;10.63;;;;;;;6.68;100.00;100587.34;5024448;28;20792;-54
2021/12/30 04:31:15;;;;;;;21.03;12.30;;;;;;;6.83;100.00;100590.13;5024612;28;20232;-55
2021/12/30 04:33:42;;;;;;;18.20;12.37;;;;;;;6.77;100.00;100590.03;5024108;28;20268;-57
2021/12/30 04:36:10;;;;;;;21.50;12.23;;;;;;;6.71;100.00;100594.34;5023904;28;20268;-55
2021/12/30 04:38:38;;;;;;;19.40;11.63;;;;;;;6.83;100.00;100595.34;5024462;28;20256;-56
2021/12/30 04:41:05;;;;;;;21.77;12.83;;;;;;;6.89;100.00;100599.78;5024979;28;20279;-53
2021/12/30 04:43:32;;;;;;;23.60;13.10;;;;;;;6.85;100.00;100598.00;5023924;28;20252;-56
2021/12/30 04:46:00;;;;;;;26.20;13.97;;;;;;;6.83;100.00;100610.13;5024632;28;20260;-56
2021/12/30 04:48:27;;;;;;;21.37;12.93;;;;;;;6.91;100.00;100608.47;5023918;28;20306;-56
2021/12/30 04:50:54;;;;;;;25.43;14.33;;;;;;;6.96;100.00;100612.03;5016628;28;20221;-56
2021/12/30 04:53:21;;;;;;;20.77;13.70;;;;;;;6.86;100.00;100604.94;5024136;28;20240;-55
2021/12/30 04:55:49;;;;;;;25.57;13.77;;;;;;;6.88;100.00;100605.81;5024340;28;20294;-56
2021/12/30 04:58:16;;;;;;;23.43;14.33;;;;;;;6.97;100.00;100608.56;5023053;28;20258;-54
2021/12/30 05:00:43;;;;;;;30.57;16.13;;;;;;;6.97;100.00;100608.56;5024071;28;20317;-56
2021/12/30 05:03:11;;;;;;;22.43;14.60;;;;;;;7.01;100.00;100618.16;5024211;28;20267;-56
2021/12/30 05:05:39;;;;;;;25.63;15.60;;;;;;;7.10;100.00;100613.06;5023133;28;20626;-55
2021/12/30 05:08:05;;;;;;;29.30;15.80;;;;;;;6.98;100.00;100609.44;5025261;28;20228;-55
2021/12/30 05:10:32;;;;;;;24.93;15.03;;;;;;;7.07;100.00;100605.19;5026949;28;20252;-57
2021/12/30 05:12:59;;;;;;;25.77;15.43;;;;;;;7.09;100.00;100603.50;5028184;28;20236;-56
2021/12/30 05:15:26;;;;;;;22.87;14.87;;;;;;;7.07;100.00;100605.19;5028611;28;20282;-56
2021/12/30 05:17:52;;;;;;;24.80;15.10;;;;;;;7.15;100.00;100613.97;5028430;28;20298;-55
2021/12/30 05:20:18;;;;;;;22.37;14.73;;;;;;;7.13;100.00;100615.72;5029686;28;20241;-54
2021/12/30 05:22:45;;;;;;;24.00;14.97;;;;;;;7.06;100.00;100615.63;5029564;28;20249;-55
2021/12/30 05:25:12;;;;;;;28.83;16.40;;;;;;;7.18;100.00;100616.63;5028768;28;20236;-56
2021/12/30 05:27:39;;;;;;;27.97;15.53;;;;;;;7.10;100.00;100615.69;5029783;28;20672;-53
2021/12/30 05:30:09;;;;;;;27.60;16.83;;;;;;;7.14;100.00;100611.38;5029800;28;20236;-56
2021/12/30 05:32:36;;;;;;;27.33;17.00;;;;;;;7.23;100.00;100616.69;5030032;28;20290;-54
2021/12/30 05:35:02;;;;;;;24.20;14.07;;;;;;;7.25;100.00;100625.41;5028139;28;20295;-56
2021/12/30 05:37:29;;;;;;;26.27;15.83;;;;;;;7.20;100.00;100627.09;5028742;28;20236;-54
2021/12/30 05:39:55;;;;;;;25.30;17.13;;;;;;;7.30;100.00;100628.06;5029478;28;20259;-54
2021/12/30 05:42:22;;;;;;;21.53;14.83;;;;;;;7.37;100.00;100648.16;5029918;28;20259;-55
2021/12/30 05:44:49;;;;;;;34.43;17.53;;;;;;;7.34;100.00;100653.38;5032813;28;20240;-54
2021/12/30 05:47:17;;;;;;;25.63;16.20;;;;;;;7.49;100.00;100656.13;5031443;28;20590;-54
2021/12/30 05:49:43;;;;;;;23.70;17.57;;;;;;;7.55;100.00;100661.44;5031051;28;20232;-56
2021/12/30 05:52:10;;;;;;;25.03;16.03;;;;;;;7.53;100.00;100663.13;5029619;28;20228;-55
2021/12/30 05:54:37;;;;;;;25.20;15.43;;;;;;;7.58;100.00;100661.47;5028775;28;20260;-56
2021/12/30 05:57:04;;;;;;;24.67;15.30;;;;;;;7.53;100.00;100652.69;5027650;28;20240;-56
2021/12/30 05:59:30;;;;;;;26.87;15.27;;;;;;;7.50;100.00;100662.22;5025987;28;20236;-55
2021/12/30 06:01:56;;;;;;;24.27;14.70;;;;;;;7.50;100.00;100673.53;5027411;28;20357;-54
2021/12/30 06:04:25;;;;;;;30.47;14.37;;;;;;;7.54;100.00;100666.63;5026165;28;20240;-54
2021/12/30 06:06:51;;;;;;;24.13;14.50;;;;;;;7.53;100.00;100665.75;5026427;28;20447;-54
2021/12/30 06:09:17;;;;;;;23.83;14.37;;;;;;;7.56;100.00;100668.41;5026707;28;20267;-56
2021/12/30 06:11:44;;;;;;;23.80;14.70;;;;;;;7.54;100.00;100672.72;5026836;28;20233;-57
2021/12/30 06:14:10;;;;;;;21.87;14.30;;;;;;;7.54;100.00;100662.25;5025206;28;20302;-53
2021/12/30 06:16:36;;;;;;;24.97;14.33;;;;;;;7.56;100.00;100663.16;5032162;28;20418;-57
2021/12/30 06:19:03;;;;;;;19.00;14.13;;;;;;;7.55;100.00;100677.09;5026312;28;20252;-53
2021/12/30 06:21:30;;;;;;;26.80;15.23;;;;;;;7.55;100.00;100676.22;5028008;28;20232;-52
2021/12/30 06:23:57;;;;;;;23.47;15.37;;;;;;;7.59;100.00;100678.00;5026535;28;20236;-55
2021/12/30 06:26:23;;;;;;;24.47;14.87;;;;;;;7.66;100.00;100671.97;5025810;28;20251;-54
2021/12/30 06:28:50;;;;;;;17.53;13.67;;;;;;;7.59;100.00;100676.25;5026115;28;20537;-53
2021/12/30 06:31:16;;;;;;;23.90;15.23;;;;;;;7.59;100.00;100684.09;5026271;28;20771;-53
2021/12/30 06:33:42;;;;;;;22.57;14.47;;;;;;;7.54;100.00;100680.56;5026055;28;20233;-53
2021/12/30 06:36:10;;;;;;;23.03;14.00;;;;;;;7.50;100.00;100676.16;5025748;28;20244;-54
2021/12/30 06:38:38;;;;;;;24.30;13.23;;;;;;;7.41;100.00;100679.56;5026570;28;20233;-56
2021/12/30 06:41:05;;;;;;;21.30;14.57;;;;;;;7.50;100.00;100681.38;5026507;28;20264;-53
2021/12/30 06:43:31;;;;;;;20.77;13.57;;;;;;;7.42;100.00;100685.66;5025341;28;20282;-56
2021/12/30 06:45:57;;;;;;;30.07;13.87;;;;;;;7.37;100.00;100697.78;5026421;28;20576;-53
2021/12/30 06:48:24;;;;;;;24.70;14.53;;;;;;;7.45;100.00;100701.38;5025857;28;20709;-55
2021/12/30 06:50:53;;;;;;;20.10;11.83;;;;;;;7.36;100.00;100701.25;5026674;28;20310;-54
2021/12/30 06:53:19;;;;;;;24.87;14.00;;;;;;;7.43;100.00;100712.66;5026137;28;20283;-53
2021/12/30 06:55:48;;;;;;;25.10;12.70;;;;;;;7.37;100.00;100723.88;5026081;28;20232;-54
2021/12/30 06:58:14;;;;;;;22.63;13.10;;;;;;;7.31;100.00;100710.78;5024934;28;20267;-54
2021/12/30 07:00:40;;;;;;;22.10;13.63;;;;;;;7.35;100.00;100713.44;5026263;28;20595;-54
2021/12/30 07:03:07;;;;;;;23.43;13.13;;;;;;;7.31;100.00;100716.00;5025924;28;20228;-54
2021/12/30 07:05:34;;;;;;;25.00;13.60;;;;;;;7.35;100.00;100723.88;5025528;28;20298;-53
2021/12/30 07:08:00;;;;;;;23.50;13.30;;;;;;;7.25;100.00;100723.75;5026415;28;20260;-52
2021/12/30 07:10:27;;;;;;;20.77;12.87;;;;;;;7.28;100.00;100718.56;5026322;28;22499;-55
2021/12/30 07:12:54;;;;;;;21.73;13.90;;;;;;;7.25;100.00;100726.38;5027706;28;20225;-54
2021/12/30 07:15:21;;;;;;;21.07;13.03;;;;;;;7.17;100.00;100732.38;5022403;28;20334;-53
2021/12/30 07:17:48;;;;;;;20.53;12.73;;;;;;;7.18;100.00;100747.16;5026829;28;20250;-53
2021/12/30 07:20:14;;;;;;;20.33;14.40;;;;;;;7.25;100.00;100755.97;5026349;28;20291;-53
2021/12/30 07:22:41;;;;;;;23.53;14.00;;;;;;;7.36;100.00;100754.34;5026147;28;20236;-54
2021/12/30 07:25:09;;;;;;;17.03;11.67;;;;;;;7.39;100.00;100753.53;5025975;28;20256;-52
2021/12/30 07:27:35;;;;;;;20.17;12.20;;;;;;;7.32;100.00;100763.03;5025744;28;20328;-55
2021/12/30 07:30:03;;;;;;;18.07;12.47;;;;;;;7.33;100.00;100754.31;5026116;28;20252;-54
2021/12/30 07:32:29;;;;;;;23.37;13.30;;;;;;;7.37;100.00;100760.47;5025653;28;20633;-53
2021/12/30 07:34:56;;;;;;;18.23;12.20;;;;;;;7.38;100.00;100762.22;5024215;28;20676;-53
2021/12/30 07:37:22;;;;;;;17.03;11.47;;;;;;;7.42;100.00;100764.03;5026513;28;20272;-54
2021/12/30 07:39:49;;;;;;;19.63;12.93;;;;;;;7.35;100.00;100764.81;5027299;28;20298;-53
2021/12/30 07:42:15;;;;;;;24.10;12.33;;;;;;;7.36;100.00;100769.16;5026814;28;20612;-53
2021/12/30 07:44:41;;;;;;;26.90;11.90;;;;;;;7.36;100.00;100756.97;5028636;28;20302;-52
2021/12/30 07:47:09;;;;;;;18.57;11.30;;;;;;;7.44;100.00;100764.94;5028192;28;20232;-55
2021/12/30 07:49:36;;;;;;;21.70;11.53;;;;;;;7.47;100.00;100766.69;5028579;28;20228;-55
2021/12/30 07:52:03;;;;;;;18.90;11.43;;;;;;;7.43;100.00;100768.38;5030117;28;20278;-54
2021/12/30 07:54:29;;;;;;;27.73;10.70;;;;;;;7.46;100.00;100770.16;5029468;28;20236;-55
2021/12/30 07:56:56;;;;;;;19.87;11.17;;;;;;;7.50;100.00;100775.44;5029721;28;20663;-55
2021/12/30 07:59:22;;;;;;;18.30;12.13;;;;;;;7.54;100.00;100769.38;5029603;28;20232;-56
2021/12/30 08:01:48;;;;;;;17.67;10.93;;;;;;;7.43;100.00;100764.88;5030045;28;20236;-54
2021/12/30 08:04:16;;;;;;;16.27;10.17;;;;;;;7.43;100.00;100763.16;5029207;28;20278;-55
2021/12/30 08:06:43;;;;;;;20.60;11.07;;;;;;;7.39;100.00;100767.47;5029125;28;20236;-53
2021/12/30 08:09:09;;;;;;;16.67;11.23;;;;;;;7.40;100.00;100771.81;5028187;28;20636;-55
2021/12/30 08:11:36;;;;;;;33.57;11.33;;;;;;;7.51;100.00;100766.75;5028528;28;20266;-57
2021/12/30 08:14:02;;;;;;;22.73;11.33;;;;;;;7.65;100.00;100759.94;5026904;28;20689;-56
2021/12/30 08:16:29;;;;;;;17.40;11.20;;;;;;;7.62;100.00;100759.91;5025210;28;20264;-53
2021/12/30 08:18:57;;;;;;;14.20;10.63;;;;;;;7.70;100.00;100749.53;5025699;28;20232;-54
2021/12/30 08:21:25;;;;;;;24.50;11.93;;;;;;;7.76;100.00;100753.97;5026917;28;20242;-53
2021/12/30 08:23:52;;;;;;;22.90;12.10;;;;;;;7.80;100.00;100747.91;5026253;28;20220;-54
2021/12/30 08:26:18;;;;;;;20.03;11.10;;;;;;;7.73;100.00;100746.09;5024754;28;20232;-55
2021/12/30 08:28:45;;;;;;;23.93;12.00;;;;;;;7.78;100.00;100760.06;5025835;28;20768;-55
2021/12/30 08:31:11;;;;;;;24.80;12.20;;;;;;;7.73;100.00;100764.38;5025337;28;20260;-55
2021/12/30 08:33:38;;;;;;;20.27;12.17;;;;;;;7.83;100.00;100766.25;5024594;28;20244;-54
2021/12/30 08:36:05;;;;;;;20.43;12.03;;;;;;;7.81;100.00;100768.81;5025267;28;20256;-55
2021/12/30 08:38:33;;;;;;;17.53;12.03;;;;;;;7.82;100.00;100778.41;5025014;28;20256;-56
2021/12/30 08:40:59;;;;;;;20.60;11.07;;;;;;;7.82;100.00;100780.16;5025677;28;20232;-55
2021/12/30 08:43:26;;;;;;;21.50;12.63;;;;;;;7.83;100.00;100772.34;5023987;28;20306;-55
2021/12/30 08:45:52;;;;;;;21.40;11.77;;;;;;;7.80;100.00;100774.03;5026268;28;20271;-54
2021/12/30 08:48:19;;;;;;;23.30;12.60;;;;;;;7.86;100.00;100771.47;5027519;28;20228;-54
2021/12/30 08:50:46;;;;;;;31.33;14.67;;;;;;;7.85;100.00;100759.28;5027490;28;20225;-55
2021/12/30 08:53:14;;;;;;;26.67;12.13;;;;;;;7.90;100.00;100770.66;5028071;28;20700;-56
2021/12/30 08:55:41;;;;;;;25.73;13.07;;;;;;;8.08;100.00;100778.69;5028131;28;20240;-54
2021/12/30 08:58:08;;;;;;;27.20;12.27;;;;;;;7.96;100.00;100772.44;5027372;28;20232;-54
2021/12/30 09:00:38;;;;;;;23.40;12.37;;;;;;;8.00;100.00;100780.38;5028988;28;20256;-55
2021/12/30 09:03:06;;;;;;;18.43;12.20;;;;;;;8.11;100.00;100791.81;5028021;28;20298;-53
2021/12/30 09:05:32;;;;;;;32.43;12.93;;;;;;;8.10;100.00;100792.63;5027228;28;20228;-54
2021/12/30 09:07:59;;;;;;;18.73;11.30;;;;;;;8.07;100.00;100795.25;5028443;28;20248;-56
2021/12/30 09:10:26;;;;;;;17.60;10.57;;;;;;;8.16;100.00;100799.69;5027794;28;20257;-54
2021/12/30 09:12:55;;;;;;;23.43;10.23;;;;;;;8.22;100.00;100801.50;5028136;28;20244;-56
2021/12/30 09:15:23;;;;;;;21.63;13.03;;;;;;;8.31;100.00;100806.78;5027892;28;20237;-53
2021/12/30 09:17:51;;;;;;;16.27;11.57;;;;;;;8.25;100.00;100793.66;5028553;28;20294;-53
2021/12/30 09:20:18;;;;;;;20.27;11.00;;;;;;;8.29;100.00;100796.31;5027424;28;20236;-54
2021/12/30 09:22:45;;;;;;;46.13;29.13;;;;;;;8.41;100.00;100808.66;5028931;28;20252;-53
2021/12/30 09:25:12;;;;;;;19.97;11.70;;;;;;;8.29;100.00;100804.19;5028538;28;20307;-52
2021/12/30 09:27:40;;;;;;;21.93;10.47;;;;;;;8.35;100.00;100813.81;5027958;28;20263;-54
2021/12/30 09:30:10;;;;;;;25.40;10.33;;;;;;;8.37;100.00;100806.84;5028505;28;20293;-57
2021/12/30 09:32:37;;;;;;;17.53;10.90;;;;;;;8.44;100.00;100813.94;5027907;28;20228;-56
2021/12/30 09:35:04;;;;;;;16.40;10.23;;;;;;;8.39;100.00;100805.19;5027331;28;20532;-57
2021/12/30 09:37:30;;;;;;;14.23;9.40;;;;;;;8.40;100.00;100811.28;5028646;28;20267;-53
2021/12/30 09:39:59;;;;;;;20.17;9.87;;;;;;;8.44;100.00;100819.16;5029156;28;20935;-54
2021/12/30 09:42:25;;;;;;;19.57;10.07;;;;;;;8.45;100.00;100828.75;5028039;28;20595;-54
2021/12/30 09:44:51;;;;;;;21.90;10.60;;;;;;;8.44;100.00;100815.69;5028853;28;20708;-55
2021/12/30 09:47:19;;;;;;;17.67;8.70;;;;;;;8.51;100.00;100820.09;5028655;28;20240;-56
2021/12/30 09:49:47;;;;;;;15.07;9.27;;;;;;;8.43;100.00;100827.00;5029162;28;20651;-53
2021/12/30 09:52:14;;;;;;;20.93;11.77;;;;;;;8.42;100.00;100825.22;5028614;28;20694;-55
2021/12/30 09:54:40;;;;;;;24.20;13.60;;;;;;;8.44;100.00;100823.53;5028651;28;20256;-54
2021/12/30 09:57:06;;;;;;;17.13;10.37;;;;;;;8.49;100.00;100813.97;5026920;28;20275;-55
2021/12/30 09:59:34;;;;;;;13.80;8.73;;;;;;;8.47;100.00;100810.47;5026835;28;20260;-55
2021/12/30 10:02:00;;;;;;;32.90;9.83;;;;;;;8.48;100.00;100810.47;5027831;28;20252;-54
2021/12/30 10:04:31;;;;;;;15.40;8.23;;;;;;;8.49;100.00;100811.34;5026813;28;20283;-56
2021/12/30 10:07:02;;;;;;;14.83;8.90;;;;;;;8.60;100.00;100809.72;5020306;28;20322;-54
2021/12/30 10:09:46;;;;;;;14.47;9.40;;;;;;;8.56;100.00;100802.69;5027637;28;20287;-55
2021/12/30 10:12:12;;;;;;;16.53;8.70;;;;;;;8.53;100.00;100803.56;5026226;28;20428;-54
2021/12/30 10:14:39;;;;;;;15.63;8.43;;;;;;;8.51;100.00;100793.94;5027515;28;20232;-53
2021/12/30 10:17:17;;;;;;;18.07;11.83;;;;;;;8.53;100.00;100793.09;5027680;28;20259;-54
2021/12/30 10:19:45;;;;;;;27.30;12.33;;;;;;;8.49;100.00;100806.97;5026573;28;20260;-54
2021/12/30 10:22:12;;;;;;;14.87;8.77;;;;;;;8.48;100.00;100792.16;5028163;28;20228;-55
2021/12/30 10:24:39;;;;;;;25.53;10.53;;;;;;;8.51;100.00;100800.03;5027565;28;20229;-53
2021/12/30 10:27:07;;;;;;;17.60;8.97;;;;;;;8.49;100.00;100796.50;5026487;28;20241;-55
2021/12/30 10:29:40;;;;;;;16.90;10.33;;;;;;;8.45;100.00;100794.75;5027489;28;20298;-55
2021/12/30 10:32:13;;;;;;;19.77;9.33;;;;;;;8.45;100.00;100799.97;5027961;28;20233;-54
2021/12/30 10:35:06;;;;;;;16.30;9.47;;;;;;;8.50;100.00;100793.06;5026052;28;20740;-55
2021/12/30 10:37:33;;;;;;;17.70;10.10;;;;;;;8.48;100.00;100802.63;5026849;28;20249;-55
2021/12/30 10:40:00;;;;;;;14.47;9.60;;;;;;;8.52;100.00;100786.09;5027693;28;20263;-55
2021/12/30 10:42:30;;;;;;;21.53;10.97;;;;;;;8.47;100.00;100772.09;5026974;28;20645;-54
2021/12/30 10:44:59;;;;;;;19.10;9.33;;;;;;;8.48;100.00;100786.94;5026136;28;20750;-55
2021/12/30 10:47:27;;;;;;;15.77;8.20;;;;;;;8.51;100.00;100788.69;5027216;28;20240;-55
2021/12/30 10:49:58;;;;;;;13.10;9.20;;;;;;;8.46;100.00;100787.75;5027058;28;20722;-55
2021/12/30 10:52:26;;;;;;;15.47;9.27;;;;;;;8.44;100.00;100782.53;5027762;28;20693;-55
2021/12/30 10:54:53;;;;;;;13.33;8.50;;;;;;;8.43;100.00;100788.63;5027597;28;20253;-55
2021/12/30 10:57:20;;;;;;;23.83;14.10;;;;;;;8.60;100.00;100789.66;5026209;28;20272;-55
2021/12/30 10:59:49;;;;;;;16.97;9.17;;;;;;;8.51;100.00;100793.94;5027270;28;20260;-56
2021/12/30 11:02:17;;;;;;;17.07;10.47;;;;;;;8.49;100.00;100791.28;5026853;28;20236;-55
2021/12/30 11:04:46;;;;;;;21.03;9.90;;;;;;;8.63;100.00;100798.38;5026370;28;20237;-55
2021/12/30 11:07:15;;;;;;;18.93;9.97;;;;;;;8.55;100.00;100790.47;5026738;28;20240;-54
2021/12/30 11:09:48;;;;;;;16.43;9.13;;;;;;;8.62;100.00;100788.78;5026740;28;20229;-54